sensor_id;sensor_type;location;lat;lon;timestamp;P1;durP1;ratioP1;P2;durP2;ratioP2
6823;SDS011;58633;49.470;11.004;2023-05-10T00:02:25;6.50;;;5.57;;
6823;SDS011;58633;49.470;11.004;2023-05-10T00:04:51;7.38;;;5.78;;
6823;SDS011;58633;49.470;11.004;2023-05-10T00:07:17;7.72;;;6.05;;
6823;SDS011;58633;49.470;11.004;2023-05-10T00:09:43;6.97;;;5.70;;
6823;SDS011;58633;49.470;11.004;2023-05-10T00:12:09;6.93;;;6.22;;
6823;SDS011;58633;49.470;11.004;2023-05-10T00:14:34;6.60;;;6.00;;
6823;SDS011;58633;49.470;11.004;2023-05-10T00:17:00;6.00;;;5.40;;
6823;SDS011;58633;49.470;11.004;2023-05-10T00:19:26;6.15;;;5.63;;
6823;SDS011;58633;49.470;11.004;2023-05-10T00:21:52;6.20;;;5.60;;
6823;SDS011;58633;49.470;11.004;2023-05-10T00:24:17;6.35;;;5.70;;
6823;SDS011;58633;49.470;11.004;2023-05-10T00:26:43;7.93;;;5.75;;
6823;SDS011;58633;49.470;11.004;2023-05-10T00:29:08;7.85;;;6.35;;
6823;SDS011;58633;49.470;11.004;2023-05-10T00:31:34;7.50;;;6.10;;
6823;SDS011;58633;49.470;11.004;2023-05-10T00:33:59;7.10;;;5.90;;
6823;SDS011;58633;49.470;11.004;2023-05-10T00:36:25;7.03;;;6.30;;
6823;SDS011;58633;49.470;11.004;2023-05-10T00:38:51;9.27;;;6.38;;
6823;SDS011;58633;49.470;11.004;2023-05-10T00:41:16;7.55;;;6.40;;
6823;SDS011;58633;49.470;11.004;2023-05-10T00:43:42;8.65;;;6.28;;
6823;SDS011;58633;49.470;11.004;2023-05-10T00:46:08;7.70;;;6.90;;
6823;SDS011;58633;49.470;11.004;2023-05-10T00:48:33;7.15;;;6.30;;
6823;SDS011;58633;49.470;11.004;2023-05-10T00:51:00;6.70;;;6.00;;
6823;SDS011;58633;49.470;11.004;2023-05-10T00:53:26;6.57;;;5.88;;
6823;SDS011;58633;49.470;11.004;2023-05-10T00:55:52;8.05;;;6.25;;
6823;SDS011;58633;49.470;11.004;2023-05-10T00:58:18;7.25;;;6.55;;
6823;SDS011;58633;49.470;11.004;2023-05-10T01:00:43;6.55;;;5.80;;
6823;SDS011;58633;49.470;11.004;2023-05-10T01:03:12;7.35;;;6.65;;
6823;SDS011;58633;49.470;11.004;2023-05-10T01:05:37;7.97;;;5.85;;
6823;SDS011;58633;49.470;11.004;2023-05-10T01:08:03;6.50;;;5.57;;
6823;SDS011;58633;49.470;11.004;2023-05-10T01:10:29;8.38;;;6.50;;
6823;SDS011;58633;49.470;11.004;2023-05-10T01:12:56;7.18;;;6.20;;
6823;SDS011;58633;49.470;11.004;2023-05-10T01:15:21;7.20;;;5.88;;
6823;SDS011;58633;49.470;11.004;2023-05-10T01:17:47;6.50;;;5.88;;
6823;SDS011;58633;49.470;11.004;2023-05-10T01:20:14;6.13;;;5.53;;
6823;SDS011;58633;49.470;11.004;2023-05-10T01:34:07;5.80;;;5.30;;
6823;SDS011;58633;49.470;11.004;2023-05-10T01:40:00;5.93;;;5.18;;
6823;SDS011;58633;49.470;11.004;2023-05-10T01:42:10;5.30;;;4.80;;
6823;SDS011;58633;49.470;11.004;2023-05-10T01:47:09;5.43;;;4.80;;
6823;SDS011;58633;49.470;11.004;2023-05-10T01:49:41;5.03;;;4.63;;
6823;SDS011;58633;49.470;11.004;2023-05-10T01:52:12;4.90;;;4.50;;
6823;SDS011;58633;49.470;11.004;2023-05-10T01:54:43;4.68;;;4.28;;
6823;SDS011;58633;49.470;11.004;2023-05-10T01:57:14;4.80;;;4.38;;
6823;SDS011;58633;49.470;11.004;2023-05-10T01:59:41;5.40;;;4.90;;
6823;SDS011;58633;49.470;11.004;2023-05-10T02:02:10;5.15;;;4.68;;
6823;SDS011;58633;49.470;11.004;2023-05-10T02:04:38;5.00;;;4.50;;
6823;SDS011;58633;49.470;11.004;2023-05-10T02:07:05;4.70;;;4.15;;
6823;SDS011;58633;49.470;11.004;2023-05-10T02:09:32;5.13;;;4.50;;
6823;SDS011;58633;49.470;11.004;2023-05-10T02:11:59;5.07;;;4.35;;
6823;SDS011;58633;49.470;11.004;2023-05-10T02:14:27;5.60;;;4.60;;
6823;SDS011;58633;49.470;11.004;2023-05-10T02:16:56;5.10;;;4.60;;
6823;SDS011;58633;49.470;11.004;2023-05-10T02:19:23;4.13;;;3.83;;
6823;SDS011;58633;49.470;11.004;2023-05-10T02:21:49;4.93;;;4.07;;
6823;SDS011;58633;49.470;11.004;2023-05-10T02:24:16;4.60;;;4.20;;
6823;SDS011;58633;49.470;11.004;2023-05-10T02:26:44;4.03;;;3.67;;
6823;SDS011;58633;49.470;11.004;2023-05-10T02:29:12;4.13;;;3.30;;
6823;SDS011;58633;49.470;11.004;2023-05-10T02:31:38;6.28;;;4.43;;
6823;SDS011;58633;49.470;11.004;2023-05-10T02:34:05;4.93;;;4.18;;
6823;SDS011;58633;49.470;11.004;2023-05-10T02:36:32;3.90;;;3.50;;
6823;SDS011;58633;49.470;11.004;2023-05-10T02:38:58;4.10;;;3.30;;
6823;SDS011;58633;49.470;11.004;2023-05-10T02:41:26;4.30;;;4.00;;
6823;SDS011;58633;49.470;11.004;2023-05-10T02:43:55;5.47;;;3.53;;
6823;SDS011;58633;49.470;11.004;2023-05-10T02:46:22;2.88;;;2.67;;
6823;SDS011;58633;49.470;11.004;2023-05-10T02:48:48;3.60;;;3.20;;
6823;SDS011;58633;49.470;11.004;2023-05-10T02:51:14;3.25;;;2.85;;
6823;SDS011;58633;49.470;11.004;2023-05-10T02:53:43;4.88;;;2.55;;
6823;SDS011;58633;49.470;11.004;2023-05-10T02:56:12;3.10;;;2.80;;
6823;SDS011;58633;49.470;11.004;2023-05-10T02:58:43;2.67;;;2.47;;
6823;SDS011;58633;49.470;11.004;2023-05-10T03:01:08;2.33;;;2.22;;
6823;SDS011;58633;49.470;11.004;2023-05-10T03:03:34;3.35;;;2.72;;
6823;SDS011;58633;49.470;11.004;2023-05-10T03:06:00;3.10;;;2.75;;
6823;SDS011;58633;49.470;11.004;2023-05-10T03:08:25;2.97;;;2.78;;
6823;SDS011;58633;49.470;11.004;2023-05-10T03:16:15;2.28;;;2.17;;
6823;SDS011;58633;49.470;11.004;2023-05-10T03:18:50;2.78;;;2.40;;
6823;SDS011;58633;49.470;11.004;2023-05-10T03:21:25;2.13;;;2.03;;
6823;SDS011;58633;49.470;11.004;2023-05-10T03:23:58;1.83;;;1.73;;
6823;SDS011;58633;49.470;11.004;2023-05-10T03:26:30;1.98;;;1.88;;
6823;SDS011;58633;49.470;11.004;2023-05-10T03:28:56;1.70;;;1.60;;
6823;SDS011;58633;49.470;11.004;2023-05-10T03:31:24;1.40;;;1.40;;
6823;SDS011;58633;49.470;11.004;2023-05-10T03:33:50;1.67;;;1.58;;
6823;SDS011;58633;49.470;11.004;2023-05-10T03:36:16;2.97;;;1.30;;
6823;SDS011;58633;49.470;11.004;2023-05-10T03:38:43;1.02;;;1.02;;
6823;SDS011;58633;49.470;11.004;2023-05-10T03:41:08;1.10;;;1.10;;
6823;SDS011;58633;49.470;11.004;2023-05-10T03:43:34;1.20;;;1.10;;
6823;SDS011;58633;49.470;11.004;2023-05-10T03:46:03;1.17;;;1.08;;
6823;SDS011;58633;49.470;11.004;2023-05-10T03:48:29;1.48;;;1.10;;
6823;SDS011;58633;49.470;11.004;2023-05-10T03:50:55;1.00;;;1.00;;
6823;SDS011;58633;49.470;11.004;2023-05-10T03:53:21;1.08;;;0.93;;
6823;SDS011;58633;49.470;11.004;2023-05-10T03:55:47;0.90;;;0.90;;
6823;SDS011;58633;49.470;11.004;2023-05-10T03:58:13;1.00;;;0.90;;
6823;SDS011;58633;49.470;11.004;2023-05-10T04:00:39;0.88;;;0.88;;
6823;SDS011;58633;49.470;11.004;2023-05-10T04:03:08;1.73;;;0.95;;
6823;SDS011;58633;49.470;11.004;2023-05-10T04:05:34;0.85;;;0.85;;
6823;SDS011;58633;49.470;11.004;2023-05-10T04:08:00;1.08;;;1.00;;
6823;SDS011;58633;49.470;11.004;2023-05-10T04:10:26;2.40;;;0.90;;
6823;SDS011;58633;49.470;11.004;2023-05-10T04:12:51;0.70;;;0.70;;
6823;SDS011;58633;49.470;11.004;2023-05-10T04:15:17;0.80;;;0.80;;
6823;SDS011;58633;49.470;11.004;2023-05-10T04:17:42;0.80;;;0.80;;
6823;SDS011;58633;49.470;11.004;2023-05-10T04:20:08;0.75;;;0.75;;
6823;SDS011;58633;49.470;11.004;2023-05-10T04:22:34;1.65;;;0.70;;
6823;SDS011;58633;49.470;11.004;2023-05-10T04:25:00;1.27;;;0.70;;
6823;SDS011;58633;49.470;11.004;2023-05-10T04:27:26;0.68;;;0.68;;
6823;SDS011;58633;49.470;11.004;2023-05-10T04:29:52;0.60;;;0.60;;
6823;SDS011;58633;49.470;11.004;2023-05-10T04:32:17;0.60;;;0.60;;
6823;SDS011;58633;49.470;11.004;2023-05-10T04:34:43;1.60;;;0.65;;
6823;SDS011;58633;49.470;11.004;2023-05-10T04:37:09;0.68;;;0.68;;
6823;SDS011;58633;49.470;11.004;2023-05-10T04:39:34;4.68;;;0.65;;
6823;SDS011;58633;49.470;11.004;2023-05-10T04:42:00;0.85;;;0.68;;
6823;SDS011;58633;49.470;11.004;2023-05-10T04:44:27;1.20;;;0.60;;
6823;SDS011;58633;49.470;11.004;2023-05-10T04:46:53;0.80;;;0.80;;
6823;SDS011;58633;49.470;11.004;2023-05-10T04:49:19;0.70;;;0.70;;
6823;SDS011;58633;49.470;11.004;2023-05-10T04:51:44;2.25;;;0.70;;
6823;SDS011;58633;49.470;11.004;2023-05-10T04:54:10;0.80;;;0.80;;
6823;SDS011;58633;49.470;11.004;2023-05-10T04:56:35;0.70;;;0.70;;
6823;SDS011;58633;49.470;11.004;2023-05-10T04:59:01;1.00;;;0.70;;
6823;SDS011;58633;49.470;11.004;2023-05-10T05:01:27;1.58;;;0.63;;
6823;SDS011;58633;49.470;11.004;2023-05-10T05:03:53;0.80;;;0.80;;
6823;SDS011;58633;49.470;11.004;2023-05-10T05:06:19;0.70;;;0.70;;
6823;SDS011;58633;49.470;11.004;2023-05-10T05:08:45;0.70;;;0.70;;
6823;SDS011;58633;49.470;11.004;2023-05-10T05:11:11;0.57;;;0.57;;
6823;SDS011;58633;49.470;11.004;2023-05-10T05:13:37;0.70;;;0.70;;
6823;SDS011;58633;49.470;11.004;2023-05-10T05:16:02;0.70;;;0.70;;
6823;SDS011;58633;49.470;11.004;2023-05-10T05:18:28;1.25;;;0.77;;
6823;SDS011;58633;49.470;11.004;2023-05-10T05:20:54;0.60;;;0.60;;
6823;SDS011;58633;49.470;11.004;2023-05-10T05:23:19;0.65;;;0.65;;
6823;SDS011;58633;49.470;11.004;2023-05-10T05:25:45;0.70;;;0.70;;
6823;SDS011;58633;49.470;11.004;2023-05-10T05:28:11;1.30;;;0.80;;
6823;SDS011;58633;49.470;11.004;2023-05-10T05:30:37;0.80;;;0.80;;
6823;SDS011;58633;49.470;11.004;2023-05-10T05:33:03;0.80;;;0.80;;
6823;SDS011;58633;49.470;11.004;2023-05-10T05:35:28;0.77;;;0.77;;
6823;SDS011;58633;49.470;11.004;2023-05-10T05:37:54;0.80;;;0.80;;
6823;SDS011;58633;49.470;11.004;2023-05-10T05:40:20;0.90;;;0.90;;
6823;SDS011;58633;49.470;11.004;2023-05-10T05:42:46;1.55;;;0.90;;
6823;SDS011;58633;49.470;11.004;2023-05-10T05:45:12;1.75;;;0.70;;
6823;SDS011;58633;49.470;11.004;2023-05-10T05:47:39;1.65;;;0.90;;
6823;SDS011;58633;49.470;11.004;2023-05-10T05:50:05;1.50;;;0.85;;
6823;SDS011;58633;49.470;11.004;2023-05-10T05:52:31;1.02;;;1.02;;
6823;SDS011;58633;49.470;11.004;2023-05-10T05:54:56;1.00;;;1.00;;
6823;SDS011;58633;49.470;11.004;2023-05-10T05:57:22;1.10;;;1.10;;
6823;SDS011;58633;49.470;11.004;2023-05-10T05:59:47;1.17;;;1.08;;
6823;SDS011;58633;49.470;11.004;2023-05-10T06:02:13;1.10;;;1.10;;
6823;SDS011;58633;49.470;11.004;2023-05-10T06:04:38;1.35;;;1.10;;
6823;SDS011;58633;49.470;11.004;2023-05-10T06:07:04;1.80;;;0.95;;
6823;SDS011;58633;49.470;11.004;2023-05-10T06:09:30;1.67;;;1.10;;
6823;SDS011;58633;49.470;11.004;2023-05-10T06:11:55;2.55;;;1.20;;
6823;SDS011;58633;49.470;11.004;2023-05-10T06:14:21;1.20;;;1.20;;
6823;SDS011;58633;49.470;11.004;2023-05-10T06:16:47;1.10;;;1.10;;
6823;SDS011;58633;49.470;11.004;2023-05-10T06:19:12;1.00;;;1.00;;
6823;SDS011;58633;49.470;11.004;2023-05-10T06:21:38;1.02;;;1.02;;
6823;SDS011;58633;49.470;11.004;2023-05-10T06:24:03;1.77;;;1.02;;
6823;SDS011;58633;49.470;11.004;2023-05-10T06:26:31;1.40;;;1.30;;
6823;SDS011;58633;49.470;11.004;2023-05-10T06:28:57;1.40;;;1.25;;
6823;SDS011;58633;49.470;11.004;2023-05-10T06:31:23;1.20;;;1.10;;
6823;SDS011;58633;49.470;11.004;2023-05-10T06:33:48;1.95;;;1.13;;
6823;SDS011;58633;49.470;11.004;2023-05-10T06:36:14;2.45;;;1.20;;
6823;SDS011;58633;49.470;11.004;2023-05-10T06:38:39;1.50;;;1.40;;
6823;SDS011;58633;49.470;11.004;2023-05-10T06:41:05;2.50;;;1.40;;
6823;SDS011;58633;49.470;11.004;2023-05-10T06:43:31;1.20;;;1.20;;
6823;SDS011;58633;49.470;11.004;2023-05-10T06:45:56;1.40;;;1.30;;
6823;SDS011;58633;49.470;11.004;2023-05-10T06:48:22;1.27;;;1.17;;
6823;SDS011;58633;49.470;11.004;2023-05-10T06:50:48;1.10;;;1.10;;
6823;SDS011;58633;49.470;11.004;2023-05-10T06:53:13;1.25;;;1.20;;
6823;SDS011;58633;49.470;11.004;2023-05-10T06:55:39;1.33;;;1.10;;
6823;SDS011;58633;49.470;11.004;2023-05-10T06:58:04;1.60;;;1.50;;
6823;SDS011;58633;49.470;11.004;2023-05-10T07:00:31;1.42;;;1.30;;
6823;SDS011;58633;49.470;11.004;2023-05-10T07:02:56;1.77;;;1.13;;
6823;SDS011;58633;49.470;11.004;2023-05-10T07:05:22;1.15;;;1.08;;
6823;SDS011;58633;49.470;11.004;2023-05-10T07:07:48;1.48;;;1.10;;
6823;SDS011;58633;49.470;11.004;2023-05-10T07:10:13;1.10;;;1.10;;
6823;SDS011;58633;49.470;11.004;2023-05-10T07:12:39;1.30;;;1.20;;
6823;SDS011;58633;49.470;11.004;2023-05-10T07:15:05;1.67;;;1.20;;
6823;SDS011;58633;49.470;11.004;2023-05-10T07:17:31;1.17;;;1.08;;
6823;SDS011;58633;49.470;11.004;2023-05-10T07:19:58;1.15;;;1.15;;
6823;SDS011;58633;49.470;11.004;2023-05-10T07:22:23;1.95;;;1.10;;
6823;SDS011;58633;49.470;11.004;2023-05-10T07:24:49;1.85;;;1.08;;
6823;SDS011;58633;49.470;11.004;2023-05-10T07:27:15;2.10;;;1.30;;
6823;SDS011;58633;49.470;11.004;2023-05-10T07:29:40;1.90;;;1.55;;
6823;SDS011;58633;49.470;11.004;2023-05-10T07:32:06;1.23;;;1.13;;
6823;SDS011;58633;49.470;11.004;2023-05-10T07:34:31;2.45;;;1.25;;
6823;SDS011;58633;49.470;11.004;2023-05-10T07:37:00;1.13;;;1.13;;
6823;SDS011;58633;49.470;11.004;2023-05-10T07:39:26;1.30;;;1.20;;
6823;SDS011;58633;49.470;11.004;2023-05-10T07:41:52;1.88;;;1.20;;
6823;SDS011;58633;49.470;11.004;2023-05-10T07:44:18;1.40;;;1.30;;
6823;SDS011;58633;49.470;11.004;2023-05-10T07:46:45;1.83;;;1.25;;
6823;SDS011;58633;49.470;11.004;2023-05-10T07:49:10;1.38;;;1.10;;
6823;SDS011;58633;49.470;11.004;2023-05-10T07:51:36;1.67;;;1.30;;
6823;SDS011;58633;49.470;11.004;2023-05-10T07:54:02;1.58;;;1.40;;
6823;SDS011;58633;49.470;11.004;2023-05-10T07:56:28;2.10;;;1.50;;
6823;SDS011;58633;49.470;11.004;2023-05-10T07:58:56;2.28;;;1.50;;
6823;SDS011;58633;49.470;11.004;2023-05-10T08:01:26;3.47;;;1.60;;
6823;SDS011;58633;49.470;11.004;2023-05-10T08:03:52;1.92;;;1.45;;
6823;SDS011;58633;49.470;11.004;2023-05-10T08:06:18;1.52;;;1.50;;
6823;SDS011;58633;49.470;11.004;2023-05-10T08:08:45;1.58;;;1.50;;
6823;SDS011;58633;49.470;11.004;2023-05-10T08:11:14;1.45;;;1.45;;
6823;SDS011;58633;49.470;11.004;2023-05-10T08:13:41;1.77;;;1.50;;
6823;SDS011;58633;49.470;11.004;2023-05-10T08:16:06;2.83;;;1.33;;
6823;SDS011;58633;49.470;11.004;2023-05-10T08:18:32;1.50;;;1.40;;
6823;SDS011;58633;49.470;11.004;2023-05-10T08:20:57;1.25;;;1.25;;
6823;SDS011;58633;49.470;11.004;2023-05-10T08:23:23;1.60;;;1.45;;
6823;SDS011;58633;49.470;11.004;2023-05-10T08:25:49;1.58;;;1.33;;
6823;SDS011;58633;49.470;11.004;2023-05-10T08:28:15;1.70;;;1.60;;
6823;SDS011;58633;49.470;11.004;2023-05-10T08:30:40;2.95;;;1.85;;
6823;SDS011;58633;49.470;11.004;2023-05-10T08:33:06;2.55;;;1.40;;
6823;SDS011;58633;49.470;11.004;2023-05-10T08:35:31;1.55;;;1.45;;
6823;SDS011;58633;49.470;11.004;2023-05-10T08:37:58;1.80;;;1.67;;
6823;SDS011;58633;49.470;11.004;2023-05-10T08:40:23;2.33;;;1.50;;
6823;SDS011;58633;49.470;11.004;2023-05-10T08:42:51;1.30;;;1.27;;
6823;SDS011;58633;49.470;11.004;2023-05-10T08:45:22;1.33;;;1.30;;
6823;SDS011;58633;49.470;11.004;2023-05-10T08:47:49;1.52;;;1.42;;
6823;SDS011;58633;49.470;11.004;2023-05-10T08:50:15;1.65;;;1.55;;
6823;SDS011;58633;49.470;11.004;2023-05-10T08:52:42;1.92;;;1.40;;
6823;SDS011;58633;49.470;11.004;2023-05-10T08:55:10;1.30;;;1.30;;
6823;SDS011;58633;49.470;11.004;2023-05-10T08:57:36;1.70;;;1.60;;
6823;SDS011;58633;49.470;11.004;2023-05-10T09:00:01;2.35;;;1.63;;
6823;SDS011;58633;49.470;11.004;2023-05-10T09:02:27;1.52;;;1.42;;
6823;SDS011;58633;49.470;11.004;2023-05-10T09:04:53;3.42;;;1.73;;
6823;SDS011;58633;49.470;11.004;2023-05-10T09:07:19;2.80;;;1.65;;
6823;SDS011;58633;49.470;11.004;2023-05-10T09:09:45;3.00;;;1.98;;
6823;SDS011;58633;49.470;11.004;2023-05-10T09:12:11;2.95;;;2.17;;
6823;SDS011;58633;49.470;11.004;2023-05-10T09:14:38;3.42;;;1.90;;
6823;SDS011;58633;49.470;11.004;2023-05-10T09:17:04;1.80;;;1.70;;
6823;SDS011;58633;49.470;11.004;2023-05-10T09:19:30;5.50;;;1.98;;
6823;SDS011;58633;49.470;11.004;2023-05-10T09:21:56;3.00;;;2.10;;
6823;SDS011;58633;49.470;11.004;2023-05-10T09:24:25;2.38;;;2.17;;
6823;SDS011;58633;49.470;11.004;2023-05-10T09:26:51;2.33;;;2.10;;
6823;SDS011;58633;49.470;11.004;2023-05-10T09:29:17;2.20;;;2.00;;
6823;SDS011;58633;49.470;11.004;2023-05-10T09:31:47;2.38;;;2.03;;
6823;SDS011;58633;49.470;11.004;2023-05-10T09:34:19;2.38;;;2.17;;
6823;SDS011;58633;49.470;11.004;2023-05-10T09:36:53;2.40;;;2.10;;
6823;SDS011;58633;49.470;11.004;2023-05-10T09:39:21;3.13;;;2.08;;
6823;SDS011;58633;49.470;11.004;2023-05-10T09:42:03;2.80;;;2.40;;
6823;SDS011;58633;49.470;11.004;2023-05-10T09:44:37;2.35;;;1.92;;
6823;SDS011;58633;49.470;11.004;2023-05-10T09:47:03;3.10;;;1.65;;
6823;SDS011;58633;49.470;11.004;2023-05-10T09:49:29;2.70;;;1.80;;
6823;SDS011;58633;49.470;11.004;2023-05-10T09:52:02;1.73;;;1.63;;
6823;SDS011;58633;49.470;11.004;2023-05-10T09:54:32;2.45;;;2.15;;
6823;SDS011;58633;49.470;11.004;2023-05-10T09:56:58;2.85;;;1.52;;
6823;SDS011;58633;49.470;11.004;2023-05-10T09:59:25;2.38;;;1.50;;
6823;SDS011;58633;49.470;11.004;2023-05-10T10:01:52;4.05;;;1.52;;
6823;SDS011;58633;49.470;11.004;2023-05-10T10:04:20;1.50;;;1.40;;
6823;SDS011;58633;49.470;11.004;2023-05-10T10:06:46;2.92;;;1.50;;
6823;SDS011;58633;49.470;11.004;2023-05-10T10:09:23;1.52;;;1.42;;
6823;SDS011;58633;49.470;11.004;2023-05-10T10:11:49;1.38;;;1.23;;
6823;SDS011;58633;49.470;11.004;2023-05-10T10:14:15;2.30;;;1.30;;
6823;SDS011;58633;49.470;11.004;2023-05-10T10:16:43;2.80;;;1.40;;
6823;SDS011;58633;49.470;11.004;2023-05-10T10:19:09;1.73;;;1.00;;
6823;SDS011;58633;49.470;11.004;2023-05-10T10:21:35;1.40;;;1.00;;
6823;SDS011;58633;49.470;11.004;2023-05-10T10:24:01;1.17;;;1.00;;
6823;SDS011;58633;49.470;11.004;2023-05-10T10:26:26;1.42;;;1.08;;
6823;SDS011;58633;49.470;11.004;2023-05-10T10:34:33;1.20;;;1.15;;
6823;SDS011;58633;49.470;11.004;2023-05-10T10:37:03;1.30;;;1.15;;
6823;SDS011;58633;49.470;11.004;2023-05-10T10:39:30;2.05;;;1.30;;
6823;SDS011;58633;49.470;11.004;2023-05-10T10:41:56;2.10;;;1.05;;
6823;SDS011;58633;49.470;11.004;2023-05-10T10:55:06;1.45;;;1.10;;
6823;SDS011;58633;49.470;11.004;2023-05-10T10:57:55;1.88;;;1.13;;
6823;SDS011;58633;49.470;11.004;2023-05-10T11:00:38;2.33;;;1.20;;
6823;SDS011;58633;49.470;11.004;2023-05-10T11:08:19;1.58;;;1.48;;
6823;SDS011;58633;49.470;11.004;2023-05-10T11:13:48;3.33;;;1.40;;
6823;SDS011;58633;49.470;11.004;2023-05-10T11:16:17;1.77;;;1.55;;
6823;SDS011;58633;49.470;11.004;2023-05-10T11:19:03;1.42;;;1.30;;
6823;SDS011;58633;49.470;11.004;2023-05-10T11:21:34;1.50;;;1.40;;
6823;SDS011;58633;49.470;11.004;2023-05-10T11:24:22;1.63;;;1.50;;
6823;SDS011;58633;49.470;11.004;2023-05-10T11:26:52;1.85;;;1.42;;
6823;SDS011;58633;49.470;11.004;2023-05-10T11:29:18;1.63;;;1.20;;
6823;SDS011;58633;49.470;11.004;2023-05-10T11:31:45;1.35;;;1.30;;
6823;SDS011;58633;49.470;11.004;2023-05-10T11:34:11;1.35;;;1.25;;
6823;SDS011;58633;49.470;11.004;2023-05-10T11:36:50;1.50;;;1.40;;
6823;SDS011;58633;49.470;11.004;2023-05-10T11:39:18;1.80;;;1.48;;
6823;SDS011;58633;49.470;11.004;2023-05-10T11:41:46;3.15;;;1.60;;
6823;SDS011;58633;49.470;11.004;2023-05-10T11:44:13;2.67;;;1.48;;
6823;SDS011;58633;49.470;11.004;2023-05-10T11:46:39;2.42;;;1.15;;
6823;SDS011;58633;49.470;11.004;2023-05-10T11:49:05;1.63;;;1.50;;
6823;SDS011;58633;49.470;11.004;2023-05-10T11:51:33;2.55;;;1.50;;
6823;SDS011;58633;49.470;11.004;2023-05-10T11:54:04;2.67;;;1.50;;
6823;SDS011;58633;49.470;11.004;2023-05-10T11:56:32;1.63;;;1.45;;
6823;SDS011;58633;49.470;11.004;2023-05-10T11:58:58;2.97;;;1.92;;
6823;SDS011;58633;49.470;11.004;2023-05-10T12:01:26;1.40;;;1.30;;
6823;SDS011;58633;49.470;11.004;2023-05-10T12:03:53;2.35;;;1.40;;
6823;SDS011;58633;49.470;11.004;2023-05-10T12:06:26;1.13;;;1.10;;
6823;SDS011;58633;49.470;11.004;2023-05-10T12:08:54;2.88;;;1.20;;
6823;SDS011;58633;49.470;11.004;2023-05-10T12:11:19;1.52;;;1.35;;
6823;SDS011;58633;49.470;11.004;2023-05-10T12:13:49;1.10;;;1.10;;
6823;SDS011;58633;49.470;11.004;2023-05-10T12:16:16;1.58;;;1.30;;
6823;SDS011;58633;49.470;11.004;2023-05-10T12:18:42;1.48;;;1.38;;
6823;SDS011;58633;49.470;11.004;2023-05-10T12:21:11;1.98;;;1.30;;
6823;SDS011;58633;49.470;11.004;2023-05-10T12:23:38;2.17;;;1.40;;
6823;SDS011;58633;49.470;11.004;2023-05-10T12:26:04;1.50;;;1.40;;
6823;SDS011;58633;49.470;11.004;2023-05-10T12:28:31;1.50;;;1.40;;
6823;SDS011;58633;49.470;11.004;2023-05-10T12:30:57;1.30;;;1.27;;
6823;SDS011;58633;49.470;11.004;2023-05-10T12:33:24;2.58;;;1.40;;
6823;SDS011;58633;49.470;11.004;2023-05-10T12:35:51;2.72;;;1.38;;
6823;SDS011;58633;49.470;11.004;2023-05-10T12:38:28;1.30;;;1.10;;
6823;SDS011;58633;49.470;11.004;2023-05-10T12:40:56;1.60;;;1.50;;
6823;SDS011;58633;49.470;11.004;2023-05-10T12:43:22;1.40;;;1.30;;
6823;SDS011;58633;49.470;11.004;2023-05-10T12:45:48;1.33;;;1.10;;
6823;SDS011;58633;49.470;11.004;2023-05-10T12:48:14;1.10;;;1.10;;
6823;SDS011;58633;49.470;11.004;2023-05-10T12:50:40;1.48;;;1.20;;
6823;SDS011;58633;49.470;11.004;2023-05-10T12:53:05;1.75;;;1.10;;
6823;SDS011;58633;49.470;11.004;2023-05-10T12:55:31;1.30;;;1.20;;
6823;SDS011;58633;49.470;11.004;2023-05-10T12:57:56;1.15;;;1.05;;
6823;SDS011;58633;49.470;11.004;2023-05-10T13:00:22;1.00;;;1.00;;
6823;SDS011;58633;49.470;11.004;2023-05-10T13:02:48;1.20;;;1.20;;
6823;SDS011;58633;49.470;11.004;2023-05-10T13:05:13;1.73;;;1.63;;
6823;SDS011;58633;49.470;11.004;2023-05-10T13:07:39;1.52;;;1.40;;
6823;SDS011;58633;49.470;11.004;2023-05-10T13:10:05;1.85;;;1.75;;
6823;SDS011;58633;49.470;11.004;2023-05-10T13:12:31;1.42;;;1.33;;
6823;SDS011;58633;49.470;11.004;2023-05-10T13:14:57;3.47;;;1.23;;
6823;SDS011;58633;49.470;11.004;2023-05-10T13:17:25;1.63;;;1.50;;
6823;SDS011;58633;49.470;11.004;2023-05-10T13:19:50;1.50;;;1.40;;
6823;SDS011;58633;49.470;11.004;2023-05-10T13:22:16;1.40;;;1.30;;
6823;SDS011;58633;49.470;11.004;2023-05-10T13:24:42;1.40;;;1.30;;
6823;SDS011;58633;49.470;11.004;2023-05-10T13:27:07;1.60;;;1.40;;
6823;SDS011;58633;49.470;11.004;2023-05-10T13:29:33;1.40;;;1.30;;
6823;SDS011;58633;49.470;11.004;2023-05-10T13:31:58;1.50;;;1.40;;
6823;SDS011;58633;49.470;11.004;2023-05-10T13:34:24;2.08;;;1.35;;
6823;SDS011;58633;49.470;11.004;2023-05-10T13:36:50;1.70;;;1.30;;
6823;SDS011;58633;49.470;11.004;2023-05-10T13:39:16;1.95;;;1.40;;
6823;SDS011;58633;49.470;11.004;2023-05-10T13:41:41;1.10;;;1.10;;
6823;SDS011;58633;49.470;11.004;2023-05-10T13:44:07;1.98;;;1.45;;
6823;SDS011;58633;49.470;11.004;2023-05-10T13:46:32;6.18;;;2.20;;
6823;SDS011;58633;49.470;11.004;2023-05-10T13:48:58;1.95;;;1.00;;
6823;SDS011;58633;49.470;11.004;2023-05-10T13:51:24;2.45;;;0.93;;
6823;SDS011;58633;49.470;11.004;2023-05-10T13:53:49;0.98;;;0.90;;
6823;SDS011;58633;49.470;11.004;2023-05-10T13:56:15;3.15;;;1.90;;
6823;SDS011;58633;49.470;11.004;2023-05-10T13:58:40;1.65;;;1.00;;
6823;SDS011;58633;49.470;11.004;2023-05-10T14:01:06;1.02;;;1.00;;
6823;SDS011;58633;49.470;11.004;2023-05-10T14:03:31;1.00;;;0.90;;
6823;SDS011;58633;49.470;11.004;2023-05-10T14:05:57;0.93;;;0.90;;
6823;SDS011;58633;49.470;11.004;2023-05-10T14:08:23;1.25;;;1.15;;
6823;SDS011;58633;49.470;11.004;2023-05-10T14:10:49;1.20;;;1.00;;
6823;SDS011;58633;49.470;11.004;2023-05-10T14:13:15;1.35;;;1.25;;
6823;SDS011;58633;49.470;11.004;2023-05-10T14:15:41;1.77;;;1.33;;
6823;SDS011;58633;49.470;11.004;2023-05-10T14:18:06;0.95;;;0.95;;
6823;SDS011;58633;49.470;11.004;2023-05-10T14:20:32;1.05;;;0.95;;
6823;SDS011;58633;49.470;11.004;2023-05-10T14:22:58;2.53;;;1.10;;
6823;SDS011;58633;49.470;11.004;2023-05-10T14:25:24;5.25;;;1.60;;
6823;SDS011;58633;49.470;11.004;2023-05-10T14:27:50;1.00;;;1.00;;
6823;SDS011;58633;49.470;11.004;2023-05-10T14:30:16;2.47;;;1.10;;
6823;SDS011;58633;49.470;11.004;2023-05-10T14:32:41;1.60;;;1.25;;
6823;SDS011;58633;49.470;11.004;2023-05-10T14:35:07;1.55;;;1.30;;
6823;SDS011;58633;49.470;11.004;2023-05-10T14:37:33;2.60;;;1.10;;
6823;SDS011;58633;49.470;11.004;2023-05-10T14:39:58;2.40;;;1.10;;
6823;SDS011;58633;49.470;11.004;2023-05-10T14:42:24;1.02;;;1.00;;
6823;SDS011;58633;49.470;11.004;2023-05-10T14:44:49;1.52;;;1.20;;
6823;SDS011;58633;49.470;11.004;2023-05-10T14:47:15;1.58;;;1.48;;
6823;SDS011;58633;49.470;11.004;2023-05-10T14:49:40;1.13;;;1.10;;
6823;SDS011;58633;49.470;11.004;2023-05-10T14:52:06;3.15;;;1.40;;
6823;SDS011;58633;49.470;11.004;2023-05-10T14:54:32;1.55;;;1.45;;
6823;SDS011;58633;49.470;11.004;2023-05-10T14:57:00;1.67;;;1.58;;
6823;SDS011;58633;49.470;11.004;2023-05-10T14:59:26;1.55;;;1.45;;
6823;SDS011;58633;49.470;11.004;2023-05-10T15:01:51;1.50;;;1.40;;
6823;SDS011;58633;49.470;11.004;2023-05-10T15:04:17;1.10;;;1.10;;
6823;SDS011;58633;49.470;11.004;2023-05-10T15:06:43;2.60;;;1.38;;
6823;SDS011;58633;49.470;11.004;2023-05-10T15:09:08;1.95;;;0.80;;
6823;SDS011;58633;49.470;11.004;2023-05-10T15:11:34;1.02;;;1.00;;
6823;SDS011;58633;49.470;11.004;2023-05-10T15:13:59;0.77;;;0.77;;
6823;SDS011;58633;49.470;11.004;2023-05-10T15:16:26;0.80;;;0.80;;
6823;SDS011;58633;49.470;11.004;2023-05-10T15:18:52;0.80;;;0.80;;
6823;SDS011;58633;49.470;11.004;2023-05-10T15:21:17;1.95;;;0.80;;
6823;SDS011;58633;49.470;11.004;2023-05-10T15:23:42;0.68;;;0.68;;
6823;SDS011;58633;49.470;11.004;2023-05-10T15:26:08;0.85;;;0.80;;
6823;SDS011;58633;49.470;11.004;2023-05-10T15:28:33;0.70;;;0.70;;
6823;SDS011;58633;49.470;11.004;2023-05-10T15:30:59;0.60;;;0.60;;
6823;SDS011;58633;49.470;11.004;2023-05-10T15:33:25;0.70;;;0.70;;